Time;durP1;ratioP1;P1;durP2;ratioP2;P2;SDS_P1;SDS_P2;PMS_P1;PMS_P2;Temp;Humidity;BMP_temperature;BMP_pressure;BME280_temperature;BME280_humidity;BME280_pressure;Samples;Min_cycle;Max_cycle;Signal;HPM_P1;HPM_P2
2022/09/26 00:01:24;;;;;;;23.60;9.13;;;10.90;99.90;;;;;;5107704;28;20052;-68
2022/09/26 00:03:56;;;;;;;11.60;8.55;;;10.90;99.90;;;;;;5099163;28;20507;-68
2022/09/26 00:06:22;;;;;;;10.18;8.23;;;10.90;99.90;;;;;;5110183;28;20641;-68
2022/09/26 00:08:49;;;;;;;11.07;8.93;;;10.90;99.90;;;;;;5109872;28;20040;-68
2022/09/26 00:11:28;;;;;;;22.40;8.30;;;10.90;99.90;;;;;;5095842;28;20040;-68
2022/09/26 00:13:59;;;;;;;6.97;3.50;;;10.90;99.90;;;;;;5108066;28;20044;-68
2022/09/26 00:16:25;;;;;;;15.35;8.52;;;10.90;99.90;;;;;;5109051;28;20385;-68
2022/09/26 00:18:53;;;;;;;13.00;8.38;;;11.10;99.90;;;;;;5109289;28;20055;-68
2022/09/26 00:21:20;;;;;;;10.77;8.43;;;10.80;99.90;;;;;;5109471;28;20051;-68
2022/09/26 00:23:46;;;;;;;5.80;3.38;;;10.80;99.90;;;;;;5091385;28;20057;-68
2022/09/26 00:26:13;;;;;;;4.93;3.03;;;10.80;99.90;;;;;;5105430;28;20052;-68
2022/09/26 00:28:40;;;;;;;10.93;7.05;;;10.70;99.90;;;;;;5103697;28;20047;-68
2022/09/26 00:31:14;;;;;;;12.93;7.68;;;10.80;99.90;;;;;;5094330;28;20033;-68
2022/09/26 00:33:40;;;;;;;14.70;8.68;;;10.80;99.90;;;;;;5105938;28;20043;-68
2022/09/26 00:36:07;;;;;;;14.98;8.60;;;10.70;99.90;;;;;;5101638;28;20032;-68
2022/09/26 00:38:33;;;;;;;10.00;7.55;;;10.80;99.90;;;;;;5100244;28;20051;-68
2022/09/26 00:41:00;;;;;;;12.82;7.32;;;10.90;99.90;;;;;;5109730;28;20054;-68
2022/09/26 00:43:32;;;;;;;15.32;8.63;;;10.70;99.90;;;;;;5089648;28;20040;-68
2022/09/26 00:46:16;;;;;;;8.93;6.90;;;10.80;99.90;;;;;;5085677;28;20040;-68
2022/09/26 00:48:46;;;;;;;5.18;3.72;;;10.80;99.90;;;;;;5102811;28;20039;-69
2022/09/26 00:51:11;;;;;;;10.15;7.20;;;10.70;99.90;;;;;;5109087;28;20050;-68
2022/09/26 00:53:42;;;;;;;10.35;7.63;;;10.70;99.90;;;;;;5103208;28;20035;-68
2022/09/26 00:56:13;;;;;;;13.38;7.70;;;10.70;99.90;;;;;;5107908;28;20047;-68
2022/09/26 00:58:44;;;;;;;5.03;2.70;;;10.70;99.90;;;;;;5102260;28;20481;-68
2022/09/26 01:01:10;;;;;;;10.20;7.07;;;10.70;99.90;;;;;;5107892;28;20100;-68
2022/09/26 01:03:39;;;;;;;10.73;7.30;;;10.70;99.90;;;;;;5108915;28;20046;-68
2022/09/26 01:06:05;;;;;;;9.10;5.80;;;10.70;99.90;;;;;;5108630;28;20987;-68
2022/09/26 01:08:35;;;;;;;8.32;6.15;;;10.70;99.90;;;;;;5103232;28;20052;-68
2022/09/26 01:11:02;;;;;;;11.38;7.40;;;10.70;99.90;;;;;;5104591;28;20104;-68
2022/09/26 01:13:31;;;;;;;11.75;6.57;;;10.70;99.90;;;;;;5107838;28;20092;-68
2022/09/26 01:15:57;;;;;;;10.93;5.47;;;10.70;99.90;;;;;;5108682;28;20040;-68
2022/09/26 01:18:23;;;;;;;30.17;7.53;;;10.80;99.90;;;;;;5083529;28;20051;-68
2022/09/26 01:21:01;;;;;;;11.13;5.65;;;10.70;99.90;;;;;;5101008;28;20080;-68
2022/09/26 01:23:32;;;;;;;11.00;5.85;;;10.70;99.90;;;;;;5089849;28;20058;-68
2022/09/26 01:26:22;;;;;;;10.35;5.97;;;10.70;99.90;;;;;;5101555;28;20047;-68
2022/09/26 01:29:10;;;;;;;10.73;5.47;;;10.70;99.90;;;;;;5099479;28;20399;-68
2022/09/26 01:35:00;;;;;;;14.75;7.18;;;10.70;99.90;;;;;;5091624;28;20060;-68
2022/09/26 01:38:05;;;;;;;10.32;6.47;;;10.60;99.90;;;;;;5094209;28;20515;-68
2022/09/26 01:40:54;;;;;;;12.20;6.18;;;10.60;99.90;;;;;;5105675;28;20083;-68
2022/09/26 01:43:33;;;;;;;8.93;5.60;;;10.60;99.90;;;;;;5098407;28;20531;-69
2022/09/26 01:46:33;;;;;;;8.85;5.40;;;10.60;99.90;;;;;;5102208;28;20173;-68
2022/09/26 01:49:24;;;;;;;11.88;5.85;;;10.60;99.90;;;;;;5104042;28;20055;-68
2022/09/26 01:51:52;;;;;;;10.70;6.00;;;10.60;99.90;;;;;;5106696;28;20050;-68
2022/09/26 01:54:21;;;;;;;;;;;10.60;99.90;;;;;;5109066;28;20075;-68
2022/09/26 01:56:50;;;;;;;10.25;6.80;;;10.60;99.90;;;;;;5108009;28;20308;-69
2022/09/26 01:59:23;;;;;;;15.45;7.88;;;10.60;99.90;;;;;;5106302;28;20079;-68
2022/09/26 02:01:54;;;;;;;10.07;6.85;;;10.60;99.90;;;;;;5093942;28;20032;-68
2022/09/26 02:04:26;;;;;;;12.77;7.20;;;10.70;99.90;;;;;;5105162;28;20040;-68
2022/09/26 02:07:15;;;;;;;14.73;6.90;;;10.60;99.90;;;;;;5107923;28;20221;-68
2022/09/26 02:09:58;;;;;;;14.18;7.75;;;10.60;99.90;;;;;;5096913;28;20040;-68
2022/09/26 02:12:35;;;;;;;15.35;7.90;;;10.70;99.90;;;;;;5105093;28;20043;-68
2022/09/26 02:15:09;;;;;;;13.90;6.90;;;10.80;99.90;;;;;;5098920;28;20058;-68
2022/09/26 02:17:57;;;;;;;16.27;9.27;;;10.70;99.90;;;;;;5111835;28;20040;-68
2022/09/26 02:20:29;;;;;;;;;;;10.70;99.90;;;;;;5111770;28;20054;-68
2022/09/26 02:22:57;;;;;;;12.50;7.38;;;10.80;99.90;;;;;;5110869;28;19923;-68
2022/09/26 02:25:24;;;;;;;11.82;6.75;;;10.70;99.90;;;;;;5096908;27;20151;-68
2022/09/26 02:27:50;;;;;;;26.02;4.63;;;10.70;99.90;;;;;;5093944;28;20044;-68
2022/09/26 02:30:16;;;;;;;7.43;3.08;;;10.70;99.90;;;;;;5104745;28;20054;-68
2022/09/26 02:32:42;;;;;;;5.47;3.63;;;10.70;99.90;;;;;;5099799;28;20043;-68
2022/09/26 02:37:53;;;;;;;11.98;7.00;;;10.70;99.90;;;;;;5102914;28;20082;-68
2022/09/26 02:40:23;;;;;;;17.33;6.60;;;10.70;99.90;;;;;;5109394;28;20458;-68
2022/09/26 02:42:59;;;;;;;8.02;3.60;;;10.70;99.90;;;;;;5107970;28;20780;-69
2022/09/26 02:45:39;;;;;;;16.27;7.35;;;10.70;99.90;;;;;;5104263;28;20172;-68
2022/09/26 02:48:15;;;;;;;12.65;7.57;;;10.70;99.90;;;;;;5109829;28;20047;-68
2022/09/26 02:51:23;;;;;;;5.43;3.00;;;10.80;99.90;;;;;;5104292;28;20051;-67
2022/09/26 02:54:03;;;;;;;12.80;7.75;;;10.80;99.90;;;;;;5107502;28;20634;-68
2022/09/26 02:56:47;;;;;;;12.20;7.38;;;10.80;99.90;;;;;;5109961;28;20086;-68
2022/09/26 02:59:21;;;;;;;13.63;8.98;;;10.80;99.90;;;;;;5111239;28;20112;-68
2022/09/26 03:01:47;;;;;;;4.45;2.67;;;10.90;99.90;;;;;;5096232;28;20039;-68
2022/09/26 03:04:41;;;;;;;11.63;4.03;;;10.90;99.90;;;;;;5097710;28;20055;-68
2022/09/26 03:07:13;;;;;;;11.80;7.32;;;10.80;99.90;;;;;;5099361;28;20055;-68
2022/09/26 03:09:41;;;;;;;20.38;9.70;;;10.80;99.90;;;;;;5095938;28;20051;-68
2022/09/26 03:12:08;;;;;;;20.05;7.72;;;10.80;99.90;;;;;;5102947;28;20035;-69
2022/09/26 03:14:38;;;;;;;15.63;10.10;;;10.80;99.90;;;;;;5079482;28;20048;-68
2022/09/26 03:17:04;;;;;;;15.27;9.18;;;10.90;99.90;;;;;;5109573;28;20079;-69
2022/09/26 03:19:46;;;;;;;12.57;8.48;;;10.90;99.90;;;;;;5108868;28;20059;-68
2022/09/26 03:22:13;;;;;;;12.02;8.27;;;10.90;99.90;;;;;;5108523;28;20046;-68
2022/09/26 03:24:43;;;;;;;15.70;9.77;;;10.80;99.90;;;;;;5110735;28;20040;-68
2022/09/26 03:27:11;;;;;;;12.70;9.55;;;10.80;99.90;;;;;;5092833;28;20040;-68
2022/09/26 03:29:38;;;;;;;19.05;11.23;;;10.90;99.90;;;;;;5111213;28;20079;-68
2022/09/26 03:32:05;;;;;;;8.48;5.32;;;10.90;99.90;;;;;;5109282;28;20050;-69
2022/09/26 03:34:31;;;;;;;22.13;10.88;;;10.80;99.90;;;;;;5102493;28;20416;-68
2022/09/26 03:36:57;;;;;;;22.15;11.23;;;10.80;99.90;;;;;;5109690;28;20040;-68
2022/09/26 03:39:23;;;;;;;5.68;3.75;;;10.80;99.90;;;;;;5109909;28;20044;-68
2022/09/26 03:41:49;;;;;;;20.88;10.43;;;10.80;99.90;;;;;;5096271;28;20036;-68
2022/09/26 03:44:15;;;;;;;17.23;11.98;;;10.80;99.90;;;;;;5099702;28;20040;-68
2022/09/26 03:46:42;;;;;;;17.65;12.02;;;10.80;99.90;;;;;;5110311;28;20047;-68
2022/09/26 03:49:09;;;;;;;14.50;11.30;;;10.70;99.90;;;;;;5108534;28;20058;-68
2022/09/26 03:51:35;;;;;;;17.63;11.50;;;10.80;99.90;;;;;;5098687;28;20101;-68
2022/09/26 03:54:01;;;;;;;25.48;11.25;;;10.80;99.90;;;;;;5110000;28;20126;-68
2022/09/26 03:56:27;;;;;;;20.42;12.52;;;10.80;99.90;;;;;;5108874;28;20051;-68
2022/09/26 03:58:53;;;;;;;21.63;12.82;;;10.80;99.90;;;;;;5097659;28;20075;-69
2022/09/26 04:01:21;;;;;;;17.92;12.40;;;10.80;99.90;;;;;;5107372;28;20396;-69
2022/09/26 04:03:48;;;;;;;9.57;5.70;;;10.80;99.90;;;;;;5100383;28;20050;-69
2022/09/26 04:06:18;;;;;;;25.50;13.82;;;10.70;99.90;;;;;;5110024;28;20048;-69
2022/09/26 04:08:45;;;;;;;20.58;13.52;;;10.60;99.90;;;;;;5110091;28;20067;-68
2022/09/26 04:11:13;;;;;;;19.55;13.13;;;10.70;99.90;;;;;;5096898;28;20113;-68
2022/09/26 04:13:39;;;;;;;18.50;13.45;;;10.70;99.90;;;;;;5104520;28;20393;-69
2022/09/26 04:16:06;;;;;;;20.40;14.10;;;10.70;99.90;;;;;;5109347;28;20035;-69
2022/09/26 04:18:33;;;;;;;12.73;6.30;;;10.70;99.90;;;;;;5109661;28;20048;-69
2022/09/26 04:21:08;;;;;;;23.70;13.82;;;10.80;99.90;;;;;;5097114;28;20105;-69
2022/09/26 04:23:36;;;;;;;16.83;7.53;;;10.70;99.90;;;;;;5107462;28;20052;-68
2022/09/26 04:26:07;;;;;;;25.75;14.82;;;10.70;99.90;;;;;;5101303;28;20827;-69
2022/09/26 04:28:34;;;;;;;21.92;15.05;;;10.70;99.90;;;;;;5107647;28;20047;-69
2022/09/26 04:31:01;;;;;;;20.40;14.85;;;10.70;99.90;;;;;;5109061;28;20088;-69
2022/09/26 04:33:27;;;;;;;27.77;16.80;;;10.70;99.90;;;;;;5109452;28;20070;-69
2022/09/26 04:35:53;;;;;;;27.90;15.15;;;10.70;99.90;;;;;;5100494;28;20059;-69
2022/09/26 04:38:19;;;;;;;26.80;16.63;;;10.70;99.90;;;;;;5091913;28;20044;-69
2022/09/26 04:40:44;;;;;;;21.70;15.30;;;10.80;99.90;;;;;;5095606;28;20039;-69
2022/09/26 04:43:11;;;;;;;23.02;17.13;;;10.60;99.90;;;;;;5088618;28;20138;-69
2022/09/26 04:45:41;;;;;;;26.75;16.33;;;10.70;99.90;;;;;;5105929;28;20119;-69
2022/09/26 04:48:07;;;;;;;29.17;17.90;;;10.60;99.90;;;;;;5097195;28;20199;-69
2022/09/26 04:50:32;;;;;;;26.38;16.75;;;10.70;99.90;;;;;;5108417;28;20056;-69
2022/09/26 04:52:59;;;;;;;22.95;16.65;;;10.70;99.90;;;;;;5093970;28;20039;-69
2022/09/26 04:55:25;;;;;;;15.10;6.07;;;10.80;99.90;;;;;;5109798;28;20071;-69
2022/09/26 04:57:51;;;;;;;27.30;17.50;;;10.70;99.90;;;;;;5093035;28;20071;-69
2022/09/26 05:00:17;;;;;;;22.25;16.23;;;10.60;99.90;;;;;;5102708;28;20109;-69
2022/09/26 05:02:46;;;;;;;23.58;18.50;;;10.60;99.90;;;;;;5104168;28;20104;-69
2022/09/26 05:05:12;;;;;;;12.98;6.38;;;10.60;99.90;;;;;;5109175;28;20087;-69
2022/09/26 05:07:41;;;;;;;30.83;19.10;;;10.60;99.90;;;;;;5107604;28;20083;-69
2022/09/26 05:10:11;;;;;;;12.75;7.63;;;10.60;99.90;;;;;;5108946;28;20186;-69
2022/09/26 05:12:40;;;;;;;34.15;20.67;;;10.60;99.90;;;;;;5107413;28;20028;-69
2022/09/26 05:15:08;;;;;;;30.05;20.42;;;10.60;99.90;;;;;;5107303;28;20047;-69
2022/09/26 05:17:35;;;;;;;26.02;18.63;;;10.60;99.90;;;;;;5108580;28;20055;-68
2022/09/26 05:20:04;;;;;;;28.20;21.08;;;10.60;99.90;;;;;;5108962;28;20051;-68
2022/09/26 05:22:30;;;;;;;30.15;20.75;;;10.60;99.90;;;;;;5098575;28;20860;-68
2022/09/26 05:27:40;;;;;;;35.25;20.85;;;10.60;99.90;;;;;;5099999;28;20130;-69
2022/09/26 05:30:06;;;;;;;32.97;23.02;;;10.60;99.90;;;;;;5108726;28;20126;-69
2022/09/26 05:32:33;;;;;;;31.17;22.15;;;10.60;99.90;;;;;;5108434;28;20050;-69
2022/09/26 05:34:58;;;;;;;37.17;21.08;;;10.60;99.90;;;;;;5107748;28;20508;-69
2022/09/26 05:37:24;;;;;;;32.05;21.55;;;10.60;99.90;;;;;;5107375;28;20071;-69
2022/09/26 05:42:35;;;;;;;15.98;7.57;;;10.50;99.90;;;;;;5105432;28;20411;-69
2022/09/26 05:45:02;;;;;;;33.38;20.00;;;10.50;99.90;;;;;;5108509;28;20118;-69
2022/09/26 05:47:32;;;;;;;18.23;8.18;;;10.60;99.90;;;;;;5104080;28;20102;-69
2022/09/26 05:49:58;;;;;;;11.52;7.60;;;10.60;99.90;;;;;;5101611;28;20044;-69
2022/09/26 05:52:26;;;;;;;26.17;9.80;;;10.50;99.90;;;;;;5091945;28;20052;-69
2022/09/26 05:54:52;;;;;;;13.52;6.25;;;10.50;99.90;;;;;;5098095;28;20504;-69
2022/09/26 05:57:17;;;;;;;28.33;20.20;;;10.50;99.90;;;;;;5103731;28;20085;-69
2022/09/26 05:59:43;;;;;;;32.42;19.83;;;10.50;99.90;;;;;;5102677;28;20042;-69
2022/09/26 06:02:10;;;;;;;24.77;20.50;;;10.50;99.90;;;;;;5094476;28;20088;-69
2022/09/26 06:04:36;;;;;;;32.47;22.52;;;10.50;99.90;;;;;;5100337;28;20054;-69
2022/09/26 06:07:02;;;;;;;26.60;19.45;;;10.50;99.90;;;;;;5099576;28;20054;-69
2022/09/26 06:09:27;;;;;;;39.42;20.17;;;10.60;99.90;;;;;;5105692;28;20040;-69
2022/09/26 06:11:53;;;;;;;25.90;18.63;;;10.50;99.90;;;;;;5102950;28;20051;-69
2022/09/26 06:14:19;;;;;;;30.52;20.30;;;10.50;99.90;;;;;;5103232;28;20039;-69
2022/09/26 06:16:45;;;;;;;12.45;8.05;;;10.60;99.90;;;;;;5102004;28;20125;-69
2022/09/26 06:19:11;;;;;;;28.50;19.83;;;10.50;99.90;;;;;;5106908;28;20051;-69
2022/09/26 06:21:38;;;;;;;13.48;8.73;;;10.50;99.90;;;;;;5104952;28;20031;-70
2022/09/26 06:24:05;;;;;;;23.80;18.48;;;10.50;99.90;;;;;;5099829;28;20100;-69
2022/09/26 06:26:30;;;;;;;13.77;7.07;;;10.50;99.90;;;;;;5103190;28;20039;-69
2022/09/26 06:28:58;;;;;;;37.42;17.75;;;10.50;99.90;;;;;;5105836;28;20048;-69
2022/09/26 06:31:25;;;;;;;21.52;17.50;;;10.50;99.90;;;;;;5107025;28;20103;-69
2022/09/26 06:33:52;;;;;;;27.63;17.80;;;10.50;99.90;;;;;;5106646;28;20744;-69
2022/09/26 06:36:18;;;;;;;24.75;17.40;;;10.50;99.90;;;;;;5106897;28;20509;-69
2022/09/26 06:38:44;;;;;;;28.48;18.15;;;10.50;99.90;;;;;;5105765;28;20035;-69
2022/09/26 06:41:09;;;;;;;24.95;16.90;;;10.50;99.90;;;;;;5104023;28;20524;-69
2022/09/26 06:43:35;;;;;;;23.75;15.40;;;10.50;99.90;;;;;;5106378;28;20512;-69
2022/09/26 06:46:01;;;;;;;21.58;16.50;;;10.60;99.90;;;;;;5106239;28;20038;-69
2022/09/26 06:48:27;;;;;;;29.00;16.20;;;10.60;99.90;;;;;;5106506;28;20047;-69
2022/09/26 06:50:54;;;;;;;13.30;6.43;;;10.60;99.90;;;;;;5106325;28;20122;-69
2022/09/26 06:53:20;;;;;;;20.45;14.88;;;10.60;99.90;;;;;;5076357;28;20835;-69
2022/09/26 06:55:46;;;;;;;22.17;15.70;;;10.60;99.90;;;;;;5107749;28;20052;-69
2022/09/26 06:58:12;;;;;;;21.35;14.35;;;10.60;99.90;;;;;;5102821;28;20397;-69
2022/09/26 07:00:38;;;;;;;27.70;13.52;;;10.60;99.90;;;;;;5103517;28;20071;-69
2022/09/26 07:03:04;;;;;;;20.33;14.20;;;10.70;99.90;;;;;;5110946;28;20138;-69
2022/09/26 07:05:31;;;;;;;21.13;12.85;;;10.60;99.90;;;;;;5100271;28;20043;-69
2022/09/26 07:07:57;;;;;;;21.77;14.70;;;10.70;99.90;;;;;;5107606;28;20092;-68
2022/09/26 07:10:23;;;;;;;18.33;12.65;;;10.70;99.90;;;;;;5101792;28;20135;-69
2022/09/26 07:12:49;;;;;;;23.80;8.15;;;10.70;99.90;;;;;;5099414;28;20043;-69
2022/09/26 07:15:17;;;;;;;16.80;11.43;;;10.70;99.90;;;;;;5102214;28;20044;-68
2022/09/26 07:17:44;;;;;;;9.15;6.00;;;10.70;99.90;;;;;;5107104;28;20061;-68
2022/09/26 07:20:13;;;;;;;14.63;9.97;;;10.70;99.90;;;;;;5093806;28;20051;-69
2022/09/26 07:22:38;;;;;;;8.77;4.38;;;10.70;99.90;;;;;;5094668;28;20639;-68
2022/09/26 07:25:05;;;;;;;6.35;3.90;;;10.70;99.90;;;;;;5105840;28;20050;-68
2022/09/26 07:27:31;;;;;;;17.83;11.82;;;10.60;99.90;;;;;;5106509;28;20055;-68
2022/09/26 07:29:57;;;;;;;9.00;4.72;;;10.60;99.90;;;;;;5095516;28;20040;-68
2022/09/26 07:32:24;;;;;;;16.88;11.05;;;10.60;99.90;;;;;;5100383;27;20486;-69
2022/09/26 07:34:52;;;;;;;25.88;11.82;;;10.60;99.90;;;;;;5100696;27;20849;-69
2022/09/26 07:37:17;;;;;;;12.38;5.78;;;10.60;99.90;;;;;;5109548;28;20502;-69
2022/09/26 07:39:46;;;;;;;10.45;5.53;;;10.50;99.90;;;;;;5102241;28;20031;-68
2022/09/26 07:42:13;;;;;;;;;;;10.50;99.90;;;;;;5097411;28;20051;-69
2022/09/26 07:44:39;;;;;;;11.75;9.95;;;10.50;99.90;;;;;;5097463;28;19995;-69
2022/09/26 07:50:11;;;;;;;16.50;10.80;;;10.50;99.90;;;;;;5094690;28;20047;-69
2022/09/26 07:52:38;;;;;;;19.05;11.00;;;10.50;99.90;;;;;;5104080;28;20073;-69
2022/09/26 07:55:05;;;;;;;14.77;9.98;;;10.60;99.90;;;;;;5095111;28;20055;-69
2022/09/26 07:57:33;;;;;;;14.65;9.48;;;10.60;99.90;;;;;;5098224;28;20135;-69
2022/09/26 08:00:20;;;;;;;13.63;10.85;;;10.60;99.90;;;;;;5098428;28;20044;-69
2022/09/26 08:02:46;;;;;;;16.33;11.20;;;10.60;99.90;;;;;;5095791;28;20094;-69
2022/09/26 08:05:18;;;;;;;18.15;11.15;;;10.70;99.90;;;;;;5097962;28;20119;-69
2022/09/26 08:07:46;;;;;;;17.45;11.77;;;10.70;99.90;;;;;;5096277;28;20075;-69
2022/09/26 08:10:19;;;;;;;8.70;5.63;;;10.60;99.90;;;;;;5095490;28;20585;-69
2022/09/26 08:12:45;;;;;;;18.55;11.27;;;10.70;99.90;;;;;;5097822;28;20713;-69
2022/09/26 08:15:10;;;;;;;10.13;4.90;;;10.70;99.90;;;;;;5096233;28;20116;-69
2022/09/26 08:17:37;;;;;;;14.05;10.65;;;10.80;99.90;;;;;;5097936;28;20118;-69
2022/09/26 08:20:03;;;;;;;15.82;11.65;;;10.80;99.90;;;;;;5097105;28;20049;-69
2022/09/26 08:22:29;;;;;;;14.10;11.23;;;10.80;99.90;;;;;;5097824;28;20059;-69
2022/09/26 08:24:55;;;;;;;15.38;10.75;;;10.90;99.90;;;;;;5095899;28;20035;-69
2022/09/26 08:27:21;;;;;;;20.85;12.55;;;10.90;99.90;;;;;;5096486;28;20054;-69
2022/09/26 08:29:49;;;;;;;18.52;11.50;;;10.90;99.90;;;;;;5098425;28;20054;-69
2022/09/26 08:32:18;;;;;;;15.48;10.75;;;10.90;99.90;;;;;;5101430;28;20044;-69
2022/09/26 08:34:46;;;;;;;10.35;6.18;;;11.00;99.90;;;;;;5099275;28;20540;-69
2022/09/26 08:37:13;;;;;;;16.98;11.32;;;10.90;99.90;;;;;;5101041;28;20511;-69
2022/09/26 08:39:40;;;;;;;15.00;11.32;;;11.00;99.90;;;;;;5101367;28;20047;-68
2022/09/26 08:42:12;;;;;;;20.25;12.00;;;11.00;99.90;;;;;;5098109;28;20497;-68
2022/09/26 08:44:46;;;;;;;17.98;11.70;;;11.10;99.90;;;;;;5100744;28;20044;-69
2022/09/26 08:47:42;;;;;;;17.10;11.00;;;11.10;99.90;;;;;;5101053;28;20052;-68
2022/09/26 08:50:17;;;;;;;7.88;4.80;;;11.10;99.90;;;;;;5100078;28;20462;-68
2022/09/26 08:52:57;;;;;;;24.58;10.73;;;11.10;99.90;;;;;;5098959;28;20162;-68
2022/09/26 08:55:30;;;;;;;14.85;9.68;;;11.10;99.90;;;;;;5100067;28;20403;-68
2022/09/26 08:58:01;;;;;;;12.80;10.00;;;11.10;99.90;;;;;;5100962;28;20100;-68
2022/09/26 09:00:30;;;;;;;16.00;10.48;;;11.10;99.90;;;;;;5101678;28;20050;-68
2022/09/26 09:02:59;;;;;;;15.80;11.63;;;11.20;99.90;;;;;;5100569;28;20043;-68
2022/09/26 09:05:32;;;;;;;13.32;10.00;;;11.20;99.90;;;;;;5101604;28;20047;-68
2022/09/26 09:08:00;;;;;;;15.23;9.93;;;11.20;99.90;;;;;;5098450;28;20044;-68
2022/09/26 09:10:28;;;;;;;17.17;10.35;;;11.20;99.90;;;;;;5101010;28;20090;-68
2022/09/26 09:13:19;;;;;;;;;;;11.30;99.90;;;;;;5100657;28;20079;-68
2022/09/26 09:16:07;;;;;;;18.77;11.25;;;11.20;99.90;;;;;;5100331;28;19994;-68
2022/09/26 09:18:57;;;;;;;16.42;11.02;;;11.20;99.90;;;;;;5099613;28;20052;-68
2022/09/26 09:21:52;;;;;;;12.90;9.82;;;11.30;99.90;;;;;;5100155;28;20039;-68
2022/09/26 09:24:29;;;;;;;13.70;9.93;;;11.30;99.90;;;;;;5097701;28;20079;-68
2022/09/26 09:27:04;;;;;;;15.68;10.52;;;11.40;99.90;;;;;;5100989;28;20039;-68
2022/09/26 09:30:01;;;;;;;18.00;11.27;;;11.40;99.90;;;;;;5101801;28;20051;-68
2022/09/26 09:32:31;;;;;;;14.52;10.55;;;11.40;99.90;;;;;;5099856;28;20579;-67
2022/09/26 09:34:57;;;;;;;15.10;9.60;;;11.50;99.90;;;;;;5097825;28;20378;-68
2022/09/26 09:37:36;;;;;;;14.63;10.10;;;11.50;99.90;;;;;;5099600;28;20126;-68
2022/09/26 09:40:05;;;;;;;21.10;10.75;;;11.60;99.90;;;;;;5099436;28;21392;-68
2022/09/26 09:42:44;;;;;;;17.63;9.77;;;11.60;99.90;;;;;;5100064;28;20161;-68
2022/09/26 09:45:28;;;;;;;20.67;9.68;;;11.70;99.90;;;;;;5100814;28;20883;-68
2022/09/26 09:47:56;;;;;;;21.40;10.10;;;11.70;99.90;;;;;;5100604;28;20089;-68
2022/09/26 09:50:42;;;;;;;16.73;4.97;;;11.70;99.90;;;;;;5101079;28;20039;-68
2022/09/26 09:53:28;;;;;;;15.25;11.30;;;11.70;99.90;;;;;;5097018;28;20048;-68
2022/09/26 09:56:16;;;;;;;16.83;9.35;;;11.80;99.90;;;;;;5100610;28;20043;-67
2022/09/26 09:58:53;;;;;;;22.65;11.07;;;11.80;99.90;;;;;;5100905;28;20167;-68
2022/09/26 10:01:33;;;;;;;7.78;4.63;;;11.80;99.90;;;;;;5100112;28;20042;-67
2022/09/26 10:04:10;;;;;;;15.93;10.23;;;11.80;99.90;;;;;;5098525;28;20127;-67
2022/09/26 10:06:36;;;;;;;17.52;10.90;;;11.80;99.90;;;;;;5098870;28;20131;-68
2022/09/26 10:09:22;;;;;;;23.55;10.95;;;11.70;99.90;;;;;;5099023;28;20032;-67
2022/09/26 10:11:48;;;;;;;21.77;12.20;;;11.80;99.90;;;;;;5099489;28;20051;-67
2022/09/26 10:14:26;;;;;;;23.60;11.70;;;11.70;99.90;;;;;;5098147;28;20059;-67
2022/09/26 10:17:09;;;;;;;13.30;7.05;;;11.70;99.90;;;;;;5102907;28;20036;-67
2022/09/26 10:19:38;;;;;;;6.03;3.13;;;11.70;99.90;;;;;;5095996;28;20397;-67
2022/09/26 10:22:08;;;;;;;;;;;11.70;99.90;;;;;;5105517;28;20480;-67
2022/09/26 10:24:42;;;;;;;19.92;11.25;;;11.70;99.90;;;;;;5088795;28;19926;-67
2022/09/26 10:27:33;;;;;;;16.83;11.05;;;11.70;99.90;;;;;;5103925;28;20044;-67
2022/09/26 10:30:01;;;;;;;19.45;11.65;;;11.70;99.90;;;;;;5094186;28;20123;-67
2022/09/26 10:32:28;;;;;;;17.10;11.73;;;11.70;99.90;;;;;;5105103;28;20071;-67
2022/09/26 10:35:18;;;;;;;16.63;5.75;;;11.80;99.90;;;;;;5104397;28;20284;-67
2022/09/26 10:37:56;;;;;;;23.15;12.57;;;11.80;99.90;;;;;;5101016;28;20046;-67
2022/09/26 10:40:44;;;;;;;16.00;10.48;;;11.90;99.90;;;;;;5103092;28;20057;-67
2022/09/26 10:43:24;;;;;;;19.85;11.93;;;11.90;99.90;;;;;;5106468;28;20828;-68
2022/09/26 10:45:53;;;;;;;12.75;6.20;;;12.00;99.90;;;;;;5097608;28;20047;-67
2022/09/26 10:48:26;;;;;;;11.73;4.00;;;11.80;99.90;;;;;;5100889;28;20096;-68
2022/09/26 10:50:59;;;;;;;12.73;6.30;;;12.00;99.90;;;;;;5111492;28;20062;-67
2022/09/26 10:53:30;;;;;;;17.25;12.93;;;11.80;99.90;;;;;;5109801;28;20130;-67
2022/09/26 10:56:01;;;;;;;14.77;10.80;;;11.90;99.90;;;;;;5111366;28;20044;-67
2022/09/26 10:58:28;;;;;;;19.23;12.00;;;12.00;99.90;;;;;;5109396;28;20062;-67
2022/09/26 11:00:58;;;;;;;14.93;11.88;;;11.90;99.90;;;;;;5108050;28;20078;-67
2022/09/26 11:03:44;;;;;;;11.57;6.15;;;12.30;99.90;;;;;;5105460;28;20040;-67
2022/09/26 11:06:31;;;;;;;16.38;11.13;;;12.00;99.90;;;;;;5107398;28;20131;-67
2022/09/26 11:09:01;;;;;;;7.43;4.95;;;12.00;99.90;;;;;;5108492;28;20035;-68
2022/09/26 11:11:34;;;;;;;7.72;4.43;;;12.00;99.90;;;;;;5101818;28;20077;-67
2022/09/26 11:14:06;;;;;;;21.08;11.63;;;12.00;99.90;;;;;;5107367;28;20426;-68
2022/09/26 11:16:52;;;;;;;17.63;10.90;;;11.90;99.90;;;;;;5106110;28;20101;-68
2022/09/26 11:19:49;;;;;;;13.75;11.70;;;12.00;99.90;;;;;;5098235;28;20497;-67
2022/09/26 11:22:40;;;;;;;15.30;11.35;;;12.00;99.90;;;;;;5093387;28;20039;-68
2022/09/26 11:25:43;;;;;;;18.55;12.35;;;12.00;99.90;;;;;;5105519;28;20373;-67
2022/09/26 11:28:18;;;;;;;17.20;13.27;;;11.90;99.90;;;;;;5103361;28;20123;-67
2022/09/26 11:30:51;;;;;;;19.05;12.18;;;11.90;99.90;;;;;;5105645;28;20091;-67
2022/09/26 11:33:17;;;;;;;16.55;12.98;;;11.90;99.90;;;;;;5106233;28;20569;-67
2022/09/26 11:36:21;;;;;;;15.82;13.15;;;11.90;99.90;;;;;;5111145;28;20036;-67
2022/09/26 11:38:55;;;;;;;17.88;12.10;;;11.90;99.90;;;;;;5101845;28;20089;-67
2022/09/26 11:41:42;;;;;;;13.75;10.68;;;11.90;99.90;;;;;;5098810;28;20723;-67
2022/09/26 11:44:18;;;;;;;14.40;11.60;;;11.90;99.90;;;;;;5098093;28;20549;-68
2022/09/26 11:47:00;;;;;;;15.13;11.80;;;11.90;99.90;;;;;;5104628;28;20433;-68
2022/09/26 11:49:49;;;;;;;15.73;12.63;;;11.90;99.90;;;;;;5107870;28;20046;-68
2022/09/26 11:52:14;;;;;;;20.40;12.50;;;11.90;99.90;;;;;;5105119;28;20170;-68
2022/09/26 11:54:58;;;;;;;16.42;12.48;;;11.80;99.90;;;;;;5107324;28;20122;-68
2022/09/26 11:58:01;;;;;;;14.88;11.80;;;11.90;99.90;;;;;;5109312;28;20124;-68
2022/09/26 12:01:04;;;;;;;14.65;11.20;;;11.90;99.90;;;;;;5103735;28;20043;-68
2022/09/26 12:03:42;;;;;;;26.58;13.23;;;11.90;99.90;;;;;;5103974;28;20056;-68
2022/09/26 12:06:17;;;;;;;15.48;12.82;;;11.80;99.90;;;;;;5097665;28;20056;-67
2022/09/26 12:08:59;;;;;;;14.98;12.10;;;11.90;99.90;;;;;;5096344;28;20084;-67
2022/09/26 12:11:40;;;;;;;14.32;12.93;;;11.90;99.90;;;;;;5094629;28;20105;-68
2022/09/26 12:14:57;;;;;;;18.42;13.95;;;11.90;99.90;;;;;;5097145;28;20497;-68
2022/09/26 12:17:36;;;;;;;14.73;12.55;;;11.90;99.90;;;;;;5092908;28;20067;-68
2022/09/26 12:20:32;;;;;;;18.23;13.30;;;12.00;99.90;;;;;;5104294;28;20079;-68
2022/09/26 12:23:04;;;;;;;19.70;11.45;;;11.90;99.90;;;;;;5099909;28;20048;-68
2022/09/26 12:25:54;;;;;;;21.50;13.55;;;12.00;99.90;;;;;;5093450;28;20508;-69
2022/09/26 12:28:43;;;;;;;15.32;12.27;;;11.90;99.90;;;;;;5095907;28;20055;-68
2022/09/26 12:31:39;;;;;;;15.57;13.10;;;12.00;99.90;;;;;;5098631;28;20054;-68
2022/09/26 12:34:30;;;;;;;16.60;12.65;;;12.00;99.90;;;;;;5095724;28;20047;-69
2022/09/26 12:37:45;;;;;;;13.85;11.23;;;12.00;99.90;;;;;;5095876;28;20031;-68
2022/09/26 12:40:30;;;;;;;12.73;11.48;;;12.00;99.90;;;;;;5066482;28;20060;-68
2022/09/26 12:43:01;;;;;;;14.05;10.75;;;12.00;99.90;;;;;;5098882;28;20110;-68
2022/09/26 12:45:33;;;;;;;14.30;12.20;;;11.90;99.90;;;;;;5097135;28;20050;-68
2022/09/26 12:48:19;;;;;;;12.90;10.77;;;12.00;99.90;;;;;;5092262;27;20124;-67
2022/09/26 12:51:06;;;;;;;10.73;9.60;;;12.00;99.90;;;;;;5092763;28;20743;-68
2022/09/26 12:53:53;;;;;;;11.27;9.85;;;12.00;99.90;;;;;;5098658;28;20119;-68
2022/09/26 12:56:32;;;;;;;14.45;9.52;;;12.00;99.90;;;;;;5106524;28;20040;-66
2022/09/26 12:59:07;;;;;;;11.52;9.68;;;12.00;99.90;;;;;;5107030;28;20513;-67
2022/09/26 13:01:43;;;;;;;12.18;10.63;;;12.00;99.90;;;;;;5108362;28;20058;-67
2022/09/26 13:04:47;;;;;;;12.55;10.10;;;12.00;99.90;;;;;;5097083;28;20521;-67
2022/09/26 13:07:38;;;;;;;10.35;7.90;;;12.10;99.90;;;;;;5100314;28;20066;-67
2022/09/26 13:10:31;;;;;;;9.57;8.20;;;12.10;99.90;;;;;;5100701;28;20039;-67
2022/09/26 13:13:23;;;;;;;16.17;8.57;;;12.10;99.90;;;;;;5097132;28;20048;-67
2022/09/26 13:16:24;;;;;;;13.15;7.47;;;12.10;99.90;;;;;;5100185;28;20054;-67
2022/09/26 13:19:09;;;;;;;8.15;7.35;;;12.10;99.90;;;;;;5102979;28;20070;-67